createdAt,value
2018-03-16T00:01:04.265Z,8.88
2018-03-16T00:01:42.924Z,8.94
2018-03-16T00:02:51.841Z,8.94
2018-03-16T00:03:40.064Z,8.88
2018-03-16T00:04:40.042Z,8.94
2018-03-16T00:05:40.038Z,8.88
2018-03-16T00:06:40.041Z,8.94
2018-03-16T00:07:40.058Z,8.94
2018-03-16T00:08:40.071Z,8.94
2018-03-16T00:09:40.073Z,8.94
2018-03-16T00:10:40.055Z,8.88
2018-03-16T00:11:40.058Z,8.94
2018-03-16T00:12:40.065Z,8.88
2018-03-16T00:13:40.055Z,8.94
2018-03-16T00:14:40.068Z,8.88
2018-03-16T00:15:40.084Z,8.94
2018-03-16T00:16:40.091Z,8.88
2018-03-16T00:17:40.091Z,8.88
2018-03-16T00:18:40.112Z,8.88
2018-03-16T00:19:40.142Z,8.88
2018-03-16T00:20:40.110Z,8.88
2018-03-16T00:21:40.105Z,8.88
2018-03-16T00:22:40.152Z,8.88
2018-03-16T00:23:40.119Z,8.88
2018-03-16T00:24:40.149Z,8.88
2018-03-16T00:25:40.567Z,8.88
2018-03-16T00:26:40.126Z,8.88
2018-03-16T00:27:40.102Z,8.81
2018-03-16T00:28:40.326Z,8.88
2018-03-16T00:29:40.136Z,8.88
2018-03-16T00:30:40.127Z,8.88
2018-03-16T00:31:40.127Z,8.88
2018-03-16T00:32:40.142Z,8.88
2018-03-16T00:33:40.178Z,8.88
2018-03-16T00:34:40.135Z,8.88
2018-03-16T00:35:40.148Z,8.88
2018-03-16T00:36:40.159Z,8.81
2018-03-16T00:37:40.162Z,8.81
2018-03-16T00:38:40.183Z,8.81
2018-03-16T00:39:40.158Z,8.88
2018-03-16T00:40:40.163Z,8.81
2018-03-16T00:41:40.208Z,8.88
2018-03-16T00:42:40.220Z,8.81
2018-03-16T00:43:40.212Z,8.88
2018-03-16T00:44:40.178Z,8.88
2018-03-16T00:45:40.179Z,8.88
2018-03-16T00:46:40.209Z,8.88
2018-03-16T00:47:40.185Z,8.81
2018-03-16T00:48:40.214Z,8.88
2018-03-16T00:49:40.213Z,8.88
2018-03-16T00:50:40.206Z,8.88
2018-03-16T00:51:40.203Z,8.81
2018-03-16T00:52:40.208Z,8.88
2018-03-16T00:53:40.327Z,8.88
2018-03-16T00:54:40.212Z,8.81
2018-03-16T00:55:40.214Z,8.88
2018-03-16T00:56:40.212Z,8.81
2018-03-16T00:57:40.254Z,8.81
2018-03-16T00:58:40.368Z,8.81
2018-03-16T00:59:40.233Z,8.81
2018-03-16T01:00:40.213Z,8.81
2018-03-16T01:01:40.205Z,8.81
2018-03-16T01:02:40.219Z,8.81
2018-03-16T01:03:40.262Z,8.75
2018-03-16T01:04:40.230Z,8.75
2018-03-16T01:05:40.261Z,8.75
2018-03-16T01:06:40.258Z,8.75
2018-03-16T01:07:40.248Z,8.69
2018-03-16T01:08:40.257Z,8.69
2018-03-16T01:09:40.245Z,8.69
2018-03-16T01:10:40.258Z,8.69
2018-03-16T01:11:40.275Z,8.69
2018-03-16T01:12:40.273Z,8.69
2018-03-16T01:13:40.256Z,8.69
2018-03-16T01:14:40.298Z,8.69
2018-03-16T01:15:40.278Z,8.69
2018-03-16T01:16:40.344Z,8.69
2018-03-16T01:17:40.292Z,8.69
2018-03-16T01:18:40.310Z,8.69
2018-03-16T01:19:40.309Z,8.69
2018-03-16T01:20:40.308Z,8.69
2018-03-16T01:21:40.346Z,8.69
2018-03-16T01:22:40.320Z,8.69
2018-03-16T01:23:40.337Z,8.69
2018-03-16T01:24:40.377Z,8.69
2018-03-16T01:25:40.335Z,8.69
2018-03-16T01:26:40.327Z,8.69
2018-03-16T01:27:40.344Z,8.69
2018-03-16T01:28:40.341Z,8.69
2018-03-16T01:29:40.369Z,8.69
2018-03-16T01:30:40.367Z,8.69
2018-03-16T01:31:40.360Z,8.63
2018-03-16T01:32:40.364Z,8.69
2018-03-16T01:33:40.361Z,8.69
2018-03-16T01:34:40.388Z,8.69
2018-03-16T01:35:40.388Z,8.69
2018-03-16T01:36:40.362Z,8.69
2018-03-16T01:37:40.451Z,8.69
2018-03-16T01:38:40.372Z,8.69
2018-03-16T01:39:40.392Z,8.69
2018-03-16T01:40:40.385Z,8.69
2018-03-16T01:41:40.382Z,8.69
2018-03-16T01:42:40.383Z,8.63
2018-03-16T01:43:40.406Z,8.69
2018-03-16T01:44:40.414Z,8.69
2018-03-16T01:45:40.435Z,8.63
2018-03-16T01:46:40.396Z,8.69
2018-03-16T01:47:40.417Z,8.63
2018-03-16T01:48:40.403Z,8.69
2018-03-16T01:49:40.424Z,8.63
2018-03-16T01:50:40.439Z,8.69
2018-03-16T01:51:40.413Z,8.69
2018-03-16T01:52:40.451Z,8.63
2018-03-16T01:53:40.406Z,8.63
2018-03-16T01:54:40.419Z,8.63
2018-03-16T01:55:40.421Z,8.63
2018-03-16T01:56:40.436Z,8.56
2018-03-16T01:57:40.434Z,8.56
2018-03-16T01:58:40.497Z,8.63
2018-03-16T01:59:40.440Z,8.56
2018-03-16T02:00:40.462Z,8.56
2018-03-16T02:01:40.431Z,8.63
2018-03-16T02:02:40.439Z,8.63
2018-03-16T02:03:40.424Z,8.56
2018-03-16T02:04:40.448Z,8.56
2018-03-16T02:05:40.435Z,8.63
2018-03-16T02:06:40.448Z,8.63
2018-03-16T02:07:40.450Z,8.56
2018-03-16T02:08:40.482Z,8.56
2018-03-16T02:09:40.467Z,8.56
2018-03-16T02:10:40.465Z,8.5
2018-03-16T02:11:40.540Z,8.5
2018-03-16T02:12:40.467Z,8.5
2018-03-16T02:13:40.473Z,8.5
2018-03-16T02:14:40.484Z,8.5
2018-03-16T02:15:40.510Z,8.44
2018-03-16T02:16:40.484Z,8.5
2018-03-16T02:17:40.484Z,8.44
2018-03-16T02:18:40.473Z,8.44
2018-03-16T02:19:40.488Z,8.5
2018-03-16T02:20:40.512Z,8.44
2018-03-16T02:21:40.508Z,8.5
2018-03-16T02:22:40.509Z,8.44
2018-03-16T02:23:40.500Z,8.44
2018-03-16T02:24:40.537Z,8.44
2018-03-16T02:25:40.526Z,8.44
2018-03-16T02:26:40.508Z,8.44
2018-03-16T02:27:40.515Z,8.44
2018-03-16T02:28:40.527Z,8.44
2018-03-16T02:29:40.515Z,8.44
2018-03-16T02:30:40.604Z,8.5
2018-03-16T02:31:40.534Z,8.44
2018-03-16T02:32:40.544Z,8.44
2018-03-16T02:33:40.582Z,8.5
2018-03-16T02:34:40.552Z,8.5
2018-03-16T02:35:40.592Z,8.5
2018-03-16T02:36:40.573Z,8.44
2018-03-16T02:37:40.573Z,8.5
2018-03-16T02:38:40.602Z,8.5
2018-03-16T02:39:40.553Z,8.5
2018-03-16T02:40:40.628Z,8.5
2018-03-16T02:41:40.570Z,8.44
2018-03-16T02:42:40.591Z,8.5
2018-03-16T02:43:40.578Z,8.44
2018-03-16T02:44:40.585Z,8.5
2018-03-16T02:45:40.613Z,8.44
2018-03-16T02:46:40.571Z,8.44
2018-03-16T02:47:40.579Z,8.5
2018-03-16T02:48:40.591Z,8.44
2018-03-16T02:49:40.572Z,8.44
2018-03-16T02:50:40.639Z,8.44
2018-03-16T02:51:40.612Z,8.44
2018-03-16T02:52:40.612Z,8.44
2018-03-16T02:53:40.665Z,8.44
2018-03-16T02:54:40.599Z,8.38
2018-03-16T02:55:40.627Z,8.38
2018-03-16T02:56:40.597Z,8.44
2018-03-16T02:57:40.605Z,8.38
2018-03-16T02:58:40.682Z,8.44
2018-03-16T02:59:40.646Z,8.38
2018-03-16T03:00:40.649Z,8.38
2018-03-16T03:01:40.660Z,8.44
2018-03-16T03:02:40.649Z,8.38
2018-03-16T03:03:40.662Z,8.44
2018-03-16T03:04:40.659Z,8.38
2018-03-16T03:05:40.659Z,8.44
2018-03-16T03:06:40.716Z,8.38
2018-03-16T03:07:40.676Z,8.38
2018-03-16T03:08:40.694Z,8.38
2018-03-16T03:09:40.673Z,8.38
2018-03-16T03:10:40.686Z,8.38
2018-03-16T03:11:40.687Z,8.31
2018-03-16T03:12:40.665Z,8.38
2018-03-16T03:13:40.684Z,8.31
2018-03-16T03:14:40.652Z,8.31
2018-03-16T03:15:40.745Z,8.31
2018-03-16T03:16:40.684Z,8.31
2018-03-16T03:17:40.683Z,8.31
2018-03-16T03:18:40.750Z,8.31
2018-03-16T03:19:40.678Z,8.31
2018-03-16T03:20:40.714Z,8.31
2018-03-16T03:21:40.915Z,8.31
2018-03-16T03:22:40.698Z,8.31
2018-03-16T03:23:40.706Z,8.31
2018-03-16T03:24:40.706Z,8.31
2018-03-16T03:25:40.736Z,8.31
2018-03-16T03:26:40.743Z,8.38
2018-03-16T03:27:40.696Z,8.31
2018-03-16T03:28:40.706Z,8.31
2018-03-16T03:29:40.700Z,8.31
2018-03-16T03:30:40.730Z,8.31
2018-03-16T03:31:40.738Z,8.31
2018-03-16T03:32:40.734Z,8.31
2018-03-16T03:33:40.718Z,8.38
2018-03-16T03:34:40.727Z,8.31
2018-03-16T03:35:40.722Z,8.31
2018-03-16T03:36:40.740Z,8.31
2018-03-16T03:37:40.746Z,8.38
2018-03-16T03:38:40.742Z,8.31
2018-03-16T03:39:40.781Z,8.31
2018-03-16T03:40:40.745Z,8.31
2018-03-16T03:41:40.811Z,8.31
2018-03-16T03:42:40.745Z,8.31
2018-03-16T03:43:40.758Z,8.31
2018-03-16T03:44:40.765Z,8.31
2018-03-16T03:45:40.771Z,8.31
2018-03-16T03:46:40.771Z,8.31
2018-03-16T03:47:40.777Z,8.31
2018-03-16T03:48:40.794Z,8.25
2018-03-16T03:49:40.773Z,8.31
2018-03-16T03:50:40.794Z,8.31
2018-03-16T03:51:40.798Z,8.31
2018-03-16T03:52:40.797Z,8.25
2018-03-16T03:53:40.804Z,8.25
2018-03-16T03:54:40.794Z,8.25
2018-03-16T03:55:40.781Z,8.25
2018-03-16T03:56:40.792Z,8.25
2018-03-16T03:57:40.789Z,8.19
2018-03-16T03:58:41.138Z,8.19
2018-03-16T03:59:40.858Z,8.19
2018-03-16T04:00:40.812Z,8.19
2018-03-16T04:01:40.807Z,8.19
2018-03-16T04:02:40.968Z,8.19
2018-03-16T04:03:40.822Z,8.19
2018-03-16T04:04:40.820Z,8.19
2018-03-16T04:05:40.827Z,8.25
2018-03-16T04:06:40.824Z,8.19
2018-03-16T04:07:40.853Z,8.19
2018-03-16T04:08:40.868Z,8.19
2018-03-16T04:09:40.890Z,8.19
2018-03-16T04:10:40.830Z,8.19
2018-03-16T04:11:40.837Z,8.19
2018-03-16T04:12:40.846Z,8.13
2018-03-16T04:13:40.834Z,8.13
2018-03-16T04:14:40.822Z,8.19
2018-03-16T04:15:40.828Z,8.13
2018-03-16T04:16:40.841Z,8.13
2018-03-16T04:17:40.846Z,8.13
2018-03-16T04:18:40.871Z,8.13
2018-03-16T04:19:40.862Z,8.13
2018-03-16T04:20:40.833Z,8.13
2018-03-16T04:21:40.853Z,8.13
2018-03-16T04:22:40.840Z,8.13
2018-03-16T04:23:40.835Z,8.13
2018-03-16T04:24:40.900Z,8.13
2018-03-16T04:25:40.860Z,8.13
2018-03-16T04:26:40.847Z,8.13
2018-03-16T04:27:40.870Z,8.06
2018-03-16T04:28:40.867Z,8.13
2018-03-16T04:29:40.968Z,8.13
2018-03-16T04:30:40.879Z,8.13
2018-03-16T04:31:40.888Z,8.06
2018-03-16T04:32:40.889Z,8.13
2018-03-16T04:33:40.896Z,8.13
2018-03-16T04:34:40.924Z,8.13
2018-03-16T04:35:40.898Z,8.13
2018-03-16T04:36:40.899Z,8.13
2018-03-16T04:37:40.927Z,8.19
2018-03-16T04:38:40.916Z,8.13
2018-03-16T04:39:40.913Z,8.13
2018-03-16T04:40:40.919Z,8.13
2018-03-16T04:41:41.082Z,8.13
2018-03-16T04:42:40.934Z,8.13
2018-03-16T04:43:40.933Z,8.06
2018-03-16T04:44:40.937Z,8.13
2018-03-16T04:45:40.951Z,8.06
2018-03-16T04:46:40.986Z,8.06
2018-03-16T04:47:40.973Z,8.06
2018-03-16T04:48:40.970Z,8.06
2018-03-16T04:49:40.945Z,8.06
2018-03-16T04:50:40.958Z,8.06
2018-03-16T04:51:40.975Z,8.06
2018-03-16T04:52:40.963Z,8.06
2018-03-16T04:53:40.972Z,8.06
2018-03-16T04:54:41.006Z,8.06
2018-03-16T04:55:40.955Z,8.13
2018-03-16T04:56:41.007Z,8.13
2018-03-16T04:57:40.998Z,8.06
2018-03-16T04:58:40.988Z,8.13
2018-03-16T04:59:40.994Z,8.06
2018-03-16T05:00:40.982Z,8.13
2018-03-16T05:01:41.024Z,8.06
2018-03-16T05:02:41.036Z,8.06
2018-03-16T05:03:41.030Z,8.13
2018-03-16T05:04:40.981Z,8.06
2018-03-16T05:05:40.997Z,8.13
2018-03-16T05:06:40.991Z,8.13
2018-03-16T05:07:41.032Z,8.13
2018-03-16T05:08:41.073Z,8.13
2018-03-16T05:09:41.039Z,8.13
2018-03-16T05:10:41.020Z,8.13
2018-03-16T05:11:41.033Z,8.06
2018-03-16T05:12:41.046Z,8.13
2018-03-16T05:13:41.038Z,8.06
2018-03-16T05:14:41.122Z,8.13
2018-03-16T05:15:41.606Z,8.13
2018-03-16T05:16:41.057Z,8.13
2018-03-16T05:17:41.068Z,8.06
2018-03-16T05:18:41.122Z,8.06
2018-03-16T05:19:41.053Z,8.06
2018-03-16T05:20:41.079Z,8.06
2018-03-16T05:21:41.083Z,8.06
2018-03-16T05:22:41.075Z,8.06
2018-03-16T05:23:41.101Z,8.06
2018-03-16T05:24:41.295Z,8.06
2018-03-16T05:25:41.869Z,8.06
2018-03-16T05:26:41.114Z,8.06
2018-03-16T05:27:41.120Z,8.13
2018-03-16T05:28:41.161Z,8.13
2018-03-16T05:29:41.115Z,8.13
2018-03-16T05:30:41.201Z,8.13
2018-03-16T05:31:41.128Z,8.13
2018-03-16T05:32:41.109Z,8.13
2018-03-16T05:33:41.114Z,8.13
2018-03-16T05:34:41.112Z,8.13
2018-03-16T05:35:41.112Z,8.13
2018-03-16T05:36:41.379Z,8.06
2018-03-16T05:37:41.154Z,8.19
2018-03-16T05:38:41.137Z,8.06
2018-03-16T05:39:41.162Z,8.13
2018-03-16T05:40:41.448Z,8.13
2018-03-16T05:41:41.175Z,8.13
2018-03-16T05:42:41.165Z,8.13
2018-03-16T05:43:41.134Z,8.06
2018-03-16T05:44:41.147Z,8.13
2018-03-16T05:45:41.161Z,8.13
2018-03-16T05:46:41.155Z,8.13
2018-03-16T05:47:41.161Z,8.06
2018-03-16T05:48:41.158Z,8
2018-03-16T05:49:41.173Z,8.06
2018-03-16T05:50:41.181Z,8
2018-03-16T05:51:41.174Z,8
2018-03-16T05:52:41.196Z,7.94
2018-03-16T05:53:41.250Z,8
2018-03-16T05:54:41.188Z,8
2018-03-16T05:55:41.179Z,8
2018-03-16T05:56:41.237Z,8
2018-03-16T05:57:41.344Z,8
2018-03-16T05:58:41.244Z,8
2018-03-16T05:59:41.186Z,8
2018-03-16T06:00:41.543Z,8
2018-03-16T06:01:41.202Z,8
2018-03-16T06:02:41.227Z,8
2018-03-16T06:03:41.260Z,8
2018-03-16T06:04:41.224Z,8
2018-03-16T06:05:41.226Z,8
2018-03-16T06:06:41.225Z,8
2018-03-16T06:07:41.311Z,8.06
2018-03-16T06:08:41.240Z,8
2018-03-16T06:09:41.228Z,8
2018-03-16T06:10:41.227Z,8
2018-03-16T06:11:41.259Z,8
2018-03-16T06:12:41.254Z,8.06
2018-03-16T06:13:41.252Z,8
2018-03-16T06:14:41.232Z,8
2018-03-16T06:15:41.240Z,8
2018-03-16T06:16:41.264Z,8.06
2018-03-16T06:17:41.303Z,8
2018-03-16T06:18:41.693Z,8
2018-03-16T06:19:41.266Z,8
2018-03-16T06:20:41.245Z,8.06
2018-03-16T06:21:41.254Z,8.06
2018-03-16T06:22:41.270Z,8.06
2018-03-16T06:23:41.349Z,8.06
2018-03-16T06:24:41.342Z,8.06
2018-03-16T06:25:41.292Z,8.13
2018-03-16T06:26:41.283Z,8.06
2018-03-16T06:27:41.278Z,8.06
2018-03-16T06:28:41.300Z,8.06
2018-03-16T06:29:41.297Z,8.06
2018-03-16T06:30:41.314Z,8.06
2018-03-16T06:31:41.292Z,8
2018-03-16T06:32:41.299Z,8.06
2018-03-16T06:33:41.302Z,8.06
2018-03-16T06:34:41.340Z,8.06
2018-03-16T06:35:41.315Z,8.06
2018-03-16T06:36:41.326Z,8.06
2018-03-16T06:37:41.318Z,8.06
2018-03-16T06:38:41.331Z,8.06
2018-03-16T06:39:41.385Z,8.06
2018-03-16T06:40:41.345Z,8
2018-03-16T06:41:41.366Z,8
2018-03-16T06:42:41.410Z,8.06
2018-03-16T06:43:41.345Z,8
2018-03-16T06:44:42.750Z,8.06
2018-03-16T06:45:41.388Z,8
2018-03-16T06:46:41.388Z,8.06
2018-03-16T06:47:41.393Z,8.06
2018-03-16T06:48:41.352Z,8.06
2018-03-16T06:49:41.351Z,8
2018-03-16T06:50:41.359Z,8
2018-03-16T06:51:41.480Z,8.06
2018-03-16T06:52:41.376Z,8.06
2018-03-16T06:53:41.430Z,8.06
2018-03-16T06:54:41.387Z,8.06
2018-03-16T06:55:41.453Z,8.06
2018-03-16T06:56:41.427Z,8.06
2018-03-16T06:57:41.399Z,8.06
2018-03-16T06:58:41.413Z,8.13
2018-03-16T06:59:41.390Z,8.06
2018-03-16T07:00:41.385Z,8.13
2018-03-16T07:01:41.387Z,8.06
2018-03-16T07:02:41.415Z,8.13
2018-03-16T07:03:41.424Z,8.06
2018-03-16T07:04:41.413Z,8.13
2018-03-16T07:05:41.453Z,8.13
2018-03-16T07:06:41.404Z,8.13
2018-03-16T07:07:41.480Z,8.13
2018-03-16T07:08:41.439Z,8.06
2018-03-16T07:09:41.427Z,8.13
2018-03-16T07:10:41.469Z,8.06
2018-03-16T07:11:41.455Z,8.13
2018-03-16T07:12:41.588Z,8.19
2018-03-16T07:13:41.438Z,8.13
2018-03-16T07:14:41.463Z,8.19
2018-03-16T07:15:41.463Z,8.13
2018-03-16T07:16:41.435Z,8.13
2018-03-16T07:17:41.450Z,8.13
2018-03-16T07:18:41.439Z,8.13
2018-03-16T07:19:41.564Z,8.13
2018-03-16T07:20:41.482Z,8.06
2018-03-16T07:21:41.441Z,8.13
2018-03-16T07:22:41.483Z,8.13
2018-03-16T07:23:41.536Z,8.19
2018-03-16T07:24:41.482Z,8.19
2018-03-16T07:25:41.497Z,8.19
2018-03-16T07:26:41.480Z,8.13
2018-03-16T07:27:41.485Z,8.13
2018-03-16T07:28:41.597Z,8.19
2018-03-16T07:29:41.627Z,8.19
2018-03-16T07:30:41.566Z,8.13
2018-03-16T07:31:41.491Z,8.19
2018-03-16T07:32:41.509Z,8.13
2018-03-16T07:33:41.515Z,8.19
2018-03-16T07:34:41.498Z,8.13
2018-03-16T07:35:41.497Z,8.19
2018-03-16T07:36:41.531Z,8.19
2018-03-16T07:37:41.513Z,8.19
2018-03-16T07:38:41.536Z,8.19
2018-03-16T07:39:41.517Z,8.13
2018-03-16T07:40:41.510Z,8.13
2018-03-16T07:41:41.544Z,8.19
2018-03-16T07:42:41.531Z,8.19
2018-03-16T07:43:41.543Z,8.19
2018-03-16T07:44:41.533Z,8.19
2018-03-16T07:45:41.551Z,8.19
2018-03-16T07:46:41.623Z,8.19
2018-03-16T07:47:41.544Z,8.19
2018-03-16T07:48:41.553Z,8.19
2018-03-16T07:49:41.549Z,8.19
2018-03-16T07:50:41.612Z,8.19
2018-03-16T07:51:41.571Z,8.19
2018-03-16T07:52:42.166Z,8.19
2018-03-16T07:53:41.563Z,8.19
2018-03-16T07:54:41.554Z,8.19
2018-03-16T07:55:41.749Z,8.19
2018-03-16T07:56:41.593Z,8.19
2018-03-16T07:57:41.560Z,8.19
2018-03-16T07:58:41.562Z,8.25
2018-03-16T07:59:41.583Z,8.19
2018-03-16T08:00:41.585Z,8.19
2018-03-16T08:01:41.601Z,8.13
2018-03-16T08:02:41.583Z,8.19
2018-03-16T08:03:41.609Z,8.19
2018-03-16T08:04:41.601Z,8.19
2018-03-16T08:05:41.614Z,8.19
2018-03-16T08:06:41.642Z,8.19
2018-03-16T08:07:41.591Z,8.13
2018-03-16T08:08:41.813Z,8.13
2018-03-16T08:09:41.620Z,8.19
2018-03-16T08:10:41.632Z,8.13
2018-03-16T08:11:41.635Z,8.19
2018-03-16T08:12:41.649Z,8.13
2018-03-16T08:13:41.617Z,8.19
2018-03-16T08:14:41.627Z,8.19
2018-03-16T08:15:41.613Z,8.13
2018-03-16T08:16:41.667Z,8.19
2018-03-16T08:17:41.621Z,8.13
2018-03-16T08:18:41.658Z,8.19
2018-03-16T08:19:41.628Z,8.13
2018-03-16T08:20:41.666Z,8.13
2018-03-16T08:21:41.660Z,8.13
2018-03-16T08:22:41.656Z,8.13
2018-03-16T08:23:41.680Z,8.13
2018-03-16T08:24:41.663Z,8.13
2018-03-16T08:25:41.641Z,8.13
2018-03-16T08:26:41.664Z,8.13
2018-03-16T08:27:41.663Z,8.13
2018-03-16T08:28:41.685Z,8.13
2018-03-16T08:29:41.663Z,8.13
2018-03-16T08:30:41.660Z,8.13
2018-03-16T08:31:41.684Z,8.13
2018-03-16T08:32:41.676Z,8.13
2018-03-16T08:33:41.692Z,8.06
2018-03-16T08:34:41.698Z,8.13
2018-03-16T08:35:41.667Z,8.13
2018-03-16T08:36:41.703Z,8.13
2018-03-16T08:37:41.694Z,8.13
2018-03-16T08:38:41.701Z,8.13
2018-03-16T08:39:41.681Z,8.13
2018-03-16T08:40:41.703Z,8.13
2018-03-16T08:41:41.693Z,8.13
2018-03-16T08:42:41.713Z,8.13
2018-03-16T08:43:41.959Z,8.19
2018-03-16T08:44:41.684Z,8.19
2018-03-16T08:45:41.701Z,8.19
2018-03-16T08:46:41.713Z,8.25
2018-03-16T08:47:41.703Z,8.19
2018-03-16T08:48:41.743Z,8.25
2018-03-16T08:49:41.714Z,8.19
2018-03-16T08:50:41.725Z,8.25
2018-03-16T08:51:41.762Z,8.25
2018-03-16T08:52:41.744Z,8.25
2018-03-16T08:53:41.771Z,8.25
2018-03-16T08:54:41.732Z,8.25
2018-03-16T08:55:41.759Z,8.25
2018-03-16T08:56:41.746Z,8.25
2018-03-16T08:57:41.755Z,8.25
2018-03-16T08:58:41.789Z,8.25
2018-03-16T08:59:41.970Z,8.25
2018-03-16T09:00:41.768Z,8.25
2018-03-16T09:01:41.761Z,8.25
2018-03-16T09:02:41.770Z,8.25
2018-03-16T09:03:41.795Z,8.25
2018-03-16T09:04:41.778Z,8.25
2018-03-16T09:05:41.773Z,8.25
2018-03-16T09:06:41.782Z,8.31
2018-03-16T09:07:41.788Z,8.25
2018-03-16T09:08:41.822Z,8.25
2018-03-16T09:09:41.800Z,8.25
2018-03-16T09:10:41.793Z,8.31
2018-03-16T09:11:41.800Z,8.31
2018-03-16T09:12:42.008Z,8.31
2018-03-16T09:13:41.803Z,8.31
2018-03-16T09:14:41.843Z,8.38
2018-03-16T09:15:41.815Z,8.31
2018-03-16T09:16:41.801Z,8.31
2018-03-16T09:17:41.815Z,8.31
2018-03-16T09:18:41.854Z,8.38
2018-03-16T09:19:41.846Z,8.31
2018-03-16T09:20:41.816Z,8.38
2018-03-16T09:21:41.816Z,8.31
2018-03-16T09:22:41.830Z,8.31
2018-03-16T09:23:41.838Z,8.25
2018-03-16T09:24:41.867Z,8.31
2018-03-16T09:25:41.849Z,8.31
2018-03-16T09:26:41.849Z,8.38
2018-03-16T09:27:41.837Z,8.38
2018-03-16T09:28:41.848Z,8.31
2018-03-16T09:29:42.199Z,8.38
2018-03-16T09:30:41.863Z,8.38
2018-03-16T09:31:41.883Z,8.38
2018-03-16T09:32:42.106Z,8.38
2018-03-16T09:33:41.859Z,8.38
2018-03-16T09:34:41.889Z,8.44
2018-03-16T09:35:41.960Z,8.38
2018-03-16T09:36:41.861Z,8.44
2018-03-16T09:37:41.879Z,8.38
2018-03-16T09:38:41.877Z,8.44
2018-03-16T09:39:41.904Z,8.44
2018-03-16T09:40:41.883Z,8.44
2018-03-16T09:41:41.904Z,8.44
2018-03-16T09:42:41.881Z,8.44
2018-03-16T09:43:41.937Z,8.5
2018-03-16T09:44:41.910Z,8.44
2018-03-16T09:45:41.941Z,8.44
2018-03-16T09:46:41.896Z,8.44
2018-03-16T09:47:41.971Z,8.44
2018-03-16T09:48:41.923Z,8.44
2018-03-16T09:49:41.956Z,8.44
2018-03-16T09:50:42.131Z,8.5
2018-03-16T09:51:41.930Z,8.5
2018-03-16T09:52:41.940Z,8.44
2018-03-16T09:53:41.938Z,8.5
2018-03-16T09:54:41.955Z,8.5
2018-03-16T09:55:41.932Z,8.5
2018-03-16T09:56:42.219Z,8.44
2018-03-16T09:57:41.966Z,8.5
2018-03-16T09:58:41.962Z,8.5
2018-03-16T09:59:41.977Z,8.5
2018-03-16T10:00:41.970Z,8.44
2018-03-16T10:01:41.986Z,8.44
2018-03-16T10:02:41.969Z,8.5
2018-03-16T10:03:41.999Z,8.5
2018-03-16T10:04:41.974Z,8.5
2018-03-16T10:05:41.969Z,8.44
2018-03-16T10:06:41.987Z,8.5
2018-03-16T10:07:42.011Z,8.5
2018-03-16T10:08:41.966Z,8.5
2018-03-16T10:09:42.006Z,8.5
2018-03-16T10:10:41.987Z,8.5
2018-03-16T10:11:41.994Z,8.5
2018-03-16T10:12:41.985Z,8.5
2018-03-16T10:13:41.993Z,8.5
2018-03-16T10:14:41.991Z,8.56
2018-03-16T10:15:42.008Z,8.56
2018-03-16T10:16:42.031Z,8.56
2018-03-16T10:17:42.218Z,8.56
2018-03-16T10:18:42.010Z,8.63
2018-03-16T10:19:42.323Z,8.56
2018-03-16T10:20:42.042Z,8.63
2018-03-16T10:21:42.019Z,8.63
2018-03-16T10:22:42.004Z,8.63
2018-03-16T10:23:42.028Z,8.69
2018-03-16T10:24:42.030Z,8.69
2018-03-16T10:25:42.206Z,8.69
2018-03-16T10:26:42.019Z,8.75
2018-03-16T10:27:42.071Z,8.81
2018-03-16T10:28:42.010Z,8.75
2018-03-16T10:29:42.024Z,8.81
2018-03-16T10:30:42.016Z,8.81
2018-03-16T10:31:42.048Z,8.81
2018-03-16T10:32:42.037Z,8.94
2018-03-16T10:33:42.046Z,8.88
2018-03-16T10:34:42.049Z,8.94
2018-03-16T10:35:42.060Z,9
2018-03-16T10:36:42.051Z,9
2018-03-16T10:37:42.120Z,9
2018-03-16T10:38:42.056Z,9
2018-03-16T10:39:42.126Z,9.06
2018-03-16T10:40:42.071Z,9.13
2018-03-16T10:41:42.072Z,9.13
2018-03-16T10:42:42.168Z,9.19
2018-03-16T10:43:42.055Z,9.19
2018-03-16T10:44:42.059Z,9.25
2018-03-16T10:45:42.366Z,9.25
2018-03-16T10:46:42.089Z,9.25
2018-03-16T10:47:42.077Z,9.31
2018-03-16T10:48:42.066Z,9.31
2018-03-16T10:49:42.077Z,9.31
2018-03-16T10:50:42.099Z,9.31
2018-03-16T10:51:42.088Z,9.38
2018-03-16T10:52:42.091Z,9.38
2018-03-16T10:53:42.085Z,9.38
2018-03-16T10:54:42.086Z,9.38
2018-03-16T10:55:42.193Z,9.38
2018-03-16T10:56:42.116Z,9.38
2018-03-16T10:57:42.163Z,9.44
2018-03-16T10:58:42.103Z,9.44
2018-03-16T10:59:42.137Z,9.5
2018-03-16T11:00:42.215Z,9.56
2018-03-16T11:01:42.122Z,9.5
2018-03-16T11:02:42.174Z,9.56
2018-03-16T11:03:42.136Z,9.56
2018-03-16T11:04:42.144Z,9.56
2018-03-16T11:05:42.137Z,9.63
2018-03-16T11:06:42.336Z,9.63
2018-03-16T11:07:42.150Z,9.63
2018-03-16T11:08:42.185Z,9.56
2018-03-16T11:09:42.147Z,9.63
2018-03-16T11:10:42.156Z,9.63
2018-03-16T11:11:42.454Z,9.63
2018-03-16T11:12:42.145Z,9.63
2018-03-16T11:13:42.163Z,9.63
2018-03-16T11:14:42.170Z,9.63
2018-03-16T11:15:42.150Z,9.63
2018-03-16T11:16:42.188Z,9.63
2018-03-16T11:17:42.173Z,9.56
2018-03-16T11:18:42.153Z,9.63
2018-03-16T11:19:42.153Z,9.63
2018-03-16T11:20:42.164Z,9.63
2018-03-16T11:21:42.157Z,9.63
2018-03-16T11:22:42.155Z,9.63
2018-03-16T11:23:42.173Z,9.69
2018-03-16T11:24:42.220Z,9.69
2018-03-16T11:25:42.177Z,9.63
2018-03-16T11:26:42.199Z,9.69
2018-03-16T11:27:42.198Z,9.63
2018-03-16T11:28:42.173Z,9.69
2018-03-16T11:29:42.316Z,9.69
2018-03-16T11:30:42.216Z,9.75
2018-03-16T11:31:42.206Z,9.75
2018-03-16T11:32:42.190Z,9.75
2018-03-16T11:33:42.179Z,9.75
2018-03-16T11:34:42.179Z,9.81
2018-03-16T11:35:42.217Z,9.81
2018-03-16T11:36:42.324Z,9.81
2018-03-16T11:37:42.194Z,9.81
2018-03-16T11:38:42.208Z,9.81
2018-03-16T11:39:42.197Z,9.81
2018-03-16T11:40:42.201Z,9.88
2018-03-16T11:41:42.228Z,9.81
2018-03-16T11:42:42.246Z,9.88
2018-03-16T11:43:42.223Z,9.88
2018-03-16T11:44:42.245Z,9.88
2018-03-16T11:45:42.246Z,9.94
2018-03-16T11:46:42.269Z,9.94
2018-03-16T11:47:42.244Z,9.94
2018-03-16T11:48:42.248Z,9.94
2018-03-16T11:49:42.248Z,10
2018-03-16T11:50:42.269Z,10
2018-03-16T11:51:42.272Z,10.06
2018-03-16T11:52:42.317Z,10.13
2018-03-16T11:53:42.388Z,10.06
2018-03-16T11:54:42.259Z,10.13
2018-03-16T11:55:42.323Z,10.06
2018-03-16T11:56:42.305Z,10.13
2018-03-16T11:57:42.262Z,10.13
2018-03-16T11:58:42.272Z,10.13
2018-03-16T11:59:42.619Z,10.19
2018-03-16T12:00:42.283Z,10.19
2018-03-16T12:01:42.307Z,10.25
2018-03-16T12:02:42.288Z,10.19
2018-03-16T12:03:42.308Z,10.19
2018-03-16T12:04:42.283Z,10.25
2018-03-16T12:05:43.240Z,10.19
2018-03-16T12:06:44.063Z,10.25
2018-03-16T12:07:42.310Z,10.19
2018-03-16T12:08:42.303Z,10.19
2018-03-16T12:09:42.307Z,10.19
2018-03-16T12:10:42.597Z,10.19
2018-03-16T12:11:42.315Z,10.25
2018-03-16T12:12:42.318Z,10.25
2018-03-16T12:13:42.333Z,10.25
2018-03-16T12:14:42.326Z,10.25
2018-03-16T12:15:42.323Z,10.25
2018-03-16T12:16:42.340Z,10.31
2018-03-16T12:17:42.328Z,10.25
2018-03-16T12:18:42.349Z,10.31
2018-03-16T12:19:42.342Z,10.31
2018-03-16T12:20:42.321Z,10.31
2018-03-16T12:21:42.388Z,10.31
2018-03-16T12:22:42.377Z,10.31
2018-03-16T12:23:42.383Z,10.38
2018-03-16T12:24:42.338Z,10.38
2018-03-16T12:25:42.345Z,10.38
2018-03-16T12:26:42.497Z,10.38
2018-03-16T12:27:42.395Z,10.44
2018-03-16T12:28:50.820Z,10.5
2018-03-16T12:29:42.381Z,10.44
2018-03-16T12:30:42.474Z,10.5
2018-03-16T12:31:42.413Z,10.5
2018-03-16T12:32:42.458Z,10.63
2018-03-16T12:33:42.408Z,10.63
2018-03-16T12:34:42.466Z,10.69
2018-03-16T12:35:42.434Z,10.69
2018-03-16T12:36:42.373Z,10.69
2018-03-16T12:37:42.477Z,10.75
2018-03-16T12:38:42.520Z,10.75
2018-03-16T12:39:42.374Z,10.81
2018-03-16T12:40:42.382Z,10.81
2018-03-16T12:41:42.512Z,10.81
2018-03-16T12:42:42.497Z,10.88
2018-03-16T12:43:42.388Z,10.88
2018-03-16T12:44:42.412Z,10.94
2018-03-16T12:45:42.386Z,10.94
2018-03-16T12:46:42.652Z,11
2018-03-16T12:47:42.410Z,11.06
2018-03-16T12:48:42.396Z,11.06
2018-03-16T12:49:42.426Z,11.12
2018-03-16T12:50:42.410Z,11.19
2018-03-16T12:51:42.817Z,11.19
2018-03-16T12:52:42.463Z,11.25
2018-03-16T12:53:42.471Z,11.25
2018-03-16T12:54:42.422Z,11.38
2018-03-16T12:55:42.408Z,11.38
2018-03-16T12:56:42.500Z,11.5
2018-03-16T12:57:42.511Z,11.56
2018-03-16T12:58:42.505Z,11.63
2018-03-16T12:59:42.512Z,11.63
2018-03-16T13:00:42.538Z,11.69
2018-03-16T13:01:42.458Z,11.69
2018-03-16T13:02:43.576Z,11.75
2018-03-16T13:03:42.629Z,11.81
2018-03-16T13:04:42.542Z,11.81
2018-03-16T13:05:42.476Z,11.75
2018-03-16T13:06:42.532Z,11.81
2018-03-16T13:07:42.535Z,11.81
2018-03-16T13:08:42.720Z,11.81
2018-03-16T13:09:42.484Z,11.75
2018-03-16T13:10:42.501Z,11.81
2018-03-16T13:11:42.475Z,11.88
2018-03-16T13:12:42.484Z,11.88
2018-03-16T13:13:42.505Z,11.94
2018-03-16T13:14:42.522Z,11.88
2018-03-16T13:15:42.489Z,11.88
2018-03-16T13:16:42.521Z,11.88
2018-03-16T13:17:42.592Z,11.88
2018-03-16T13:18:42.530Z,11.88
2018-03-16T13:19:42.512Z,11.88
2018-03-16T13:20:42.561Z,11.88